ARBÚCIES (La Selva)





Hora UTC 22:05
Temperatura 22.4 ºC
Humedad 70.1 %
Presión 1022.0 hPa
Pluja 0.0 mm
Velocidad viento 8.6 km/h
Dirección viento SSW
Radiación solar 0.0 W/m²

Datos diarios 2024-07-24



Hora UTC (invierno +1h; verano +2h)
Temperatura (ºC) Humedad (%) Presión (hPa) Velocidad viento (km/h) Precipitación (mm) Radiación solar (W/m²)
Hora UTC Aire Humedad Presión Vel. Dir. Vel. Max Dir. Intent. máx 5 min. Rad. Sol.
00:05 20.7 77.5 1025.0 6.9 SSW 10.2 SSW 0.0 0.0
00:10 20.7 77.0 1026.0 7.2 SSW 10.9 SSW 0.0 0.0
00:15 20.5 77.1 1025.0 7.0 SSW 9.2 SW 0.0 0.0
00:20 20.3 77.8 1025.0 7.3 SSW 10.6 SSW 0.0 0.0
00:25 20.0 78.8 1025.0 8.4 SW 10.2 SW 0.0 0.0
00:30 19.9 80.0 1025.0 8.5 SSW 10.9 SSW 0.0 0.0
00:35 19.9 80.0 1025.0 8.7 SW 12.7 SW 0.0 0.0
00:40 19.8 79.8 1026.0 8.1 SSW 9.5 SSW 0.0 0.0
00:45 19.8 80.4 1025.0 8.2 SSW 10.9 SW 0.0 0.0
00:50 19.9 79.7 1025.0 7.2 SW 9.9 SW 0.0 0.0
00:55 20.0 79.0 1025.0 7.9 SSW 10.9 SW 0.0 0.0
01:00 19.8 79.3 1025.0 7.7 SSW 9.5 SSW 0.0 0.0
01:05 19.9 79.2 1025.0 6.5 SSW 10.2 SW 0.0 0.0
01:10 20.0 78.3 1026.0 8.1 SSW 14.8 SSW 0.0 0.0
01:15 20.0 77.8 1025.0 7.2 SSW 12.7 SW 0.0 0.0
01:20 19.9 78.3 1025.0 7.6 SSW 12.7 SSW 0.0 0.0
01:25 20.0 78.1 1025.0 8.3 SW 16.6 SW 0.0 0.0
01:30 20.1 77.4 1025.0 9.9 SW 16.9 WSW 0.0 0.0
01:35 20.4 75.8 1025.0 8.5 SW 14.5 SSW 0.0 0.0
01:40 20.5 75.0 1025.0 7.7 SW 12.7 SW 0.0 0.0
01:45 20.1 75.7 1025.0 8.2 SW 10.9 SSW 0.0 0.0
01:50 19.7 77.3 1025.0 8.5 SW 11.3 SW 0.0 0.0
01:55 19.4 79.0 1025.0 7.8 SW 11.3 SW 0.0 0.0
02:00 19.6 79.5 1025.0 5.9 SW 9.5 SW 0.0 0.0
02:05 19.8 78.2 1025.0 6.7 SW 10.6 SW 0.0 0.0
02:10 19.8 77.4 1025.0 5.9 SW 9.9 SW 0.0 0.0
02:15 19.6 78.3 1025.0 8.1 SW 12.0 SW 0.0 0.0
02:20 19.5 78.7 1025.0 9.2 SSW 11.6 SSW 0.0 0.0
02:25 19.5 79.0 1025.0 8.9 SSW 11.6 SSW 0.0 0.0
02:30 19.6 78.5 1024.0 9.9 SSW 13.4 SSW 0.0 0.0
02:35 19.8 77.6 1024.0 9.0 SSW 13.4 SW 0.0 0.0
02:40 19.6 77.8 1025.0 6.8 SSW 9.2 SSW 0.0 0.0
02:45 19.5 78.5 1024.0 5.5 SSW 9.2 SSW 0.0 0.0
02:50 19.3 79.1 1025.0 2.8 SW 7.1 SW 0.0 0.0
02:55 19.1 80.1 1025.0 2.0 SW 7.8 SW 0.0 0.0
03:00 18.9 81.2 1024.0 5.7 SW 10.2 SW 0.0 0.0
03:05 19.1 80.9 1025.0 6.4 SSW 9.2 SSW 0.0 0.0
03:10 19.1 80.4 1025.0 8.8 SSW 11.6 SW 0.0 0.0
03:15 19.3 79.4 1024.0 9.0 SSW 11.6 SSW 0.0 0.0
03:20 19.3 79.3 1024.0 8.5 SW 12.7 SW 0.0 0.0
03:25 19.1 79.7 1024.0 6.6 SSW 9.2 SSW 0.0 0.0
03:30 18.9 80.7 1024.0 6.0 SW 9.5 S 0.0 0.0
03:35 18.7 81.5 1024.0 2.9 SW 7.1 SSW 0.0 0.0
03:40 18.5 82.6 1025.0 0.3 SW 6.4 SW 0.0 0.0
03:45 18.5 83.5 1024.0 5.1 SSW 8.8 SSW 0.0 0.0
03:50 18.6 83.8 1024.0 6.6 SSW 9.9 SW 0.0 0.0
03:55 18.6 83.9 1024.0 7.2 SSW 10.2 SSW 0.0 0.0
04:00 18.7 83.1 1024.0 6.6 SW 9.9 SW 0.0 0.0
04:05 18.7 83.5 1024.0 9.0 SSW 12.0 SSW 0.0 0.0
04:10 18.9 83.0 1025.0 9.4 SSW 13.8 SSW 0.0 0.0
04:15 19.2 81.8 1024.0 7.3 SSW 12.0 SW 0.0 0.0
04:20 19.0 81.3 1025.0 5.6 SSW 10.6 SW 0.0 0.0
04:25 18.6 82.2 1024.0 2.0 WSW 6.7 SSW 0.0 0.0
04:30 18.3 83.6 1025.0 0.9 SSW 6.0 SW 0.0 0.0
04:35 18.2 84.9 1025.0 1.2 SW 5.6 SSW 0.0 0.4
04:40 18.2 85.6 1025.0 4.6 SW 7.4 SSW 0.0 2.6
04:45 18.1 85.6 1025.0 5.9 SW 8.8 SSW 0.0 4.4
04:50 18.2 86.2 1025.0 6.7 SW 9.5 SW 0.0 7.3
04:55 18.3 86.3 1025.0 6.6 SSW 10.6 SSW 0.0 10.7
05:00 18.5 85.2 1025.0 7.9 SSW 11.3 SSW 0.0 13.5
05:05 18.7 84.6 1024.0 7.0 SSW 9.5 SSW 0.0 16.7
05:10 18.8 83.3 1025.0 3.3 SW 7.4 S 0.0 28.7
05:15 18.6 84.1 1024.0 7.4 SSW 10.9 SSW 0.0 50.3
05:20 18.9 83.7 1024.0 7.0 SSW 11.6 SSW 0.0 64.6
05:25 19.1 82.7 1024.0 7.3 SSW 11.6 SSW 0.0 76.9
05:30 19.4 81.5 1024.0 5.5 SSW 11.3 SSW 0.0 88.7
05:35 19.6 80.9 1024.0 8.8 SSW 14.5 SSW 0.0 101.2
05:40 20.0 78.9 1025.0 8.4 SSW 11.3 SSW 0.0 115.1
05:45 20.3 77.5 1024.0 7.2 SSW 10.2 SSW 0.0 129.4
05:50 20.5 76.6 1024.0 6.6 SSW 9.2 S 0.0 143.6
05:55 20.7 75.7 1024.0 4.8 SSW 8.5 SW 0.0 157.8
06:00 20.7 76.1 1024.0 0.3 SW 7.1 SW 0.0 170.5
06:05 20.9 76.3 1024.0 5.7 SSW 8.5 SW 0.0 185.1
06:10 21.4 75.1 1025.0 4.2 SSW 6.7 SW 0.0 199.7
06:15 21.4 74.6 1024.0 4.1 SW 9.5 SSW 0.0 214.5
06:20 21.6 73.1 1024.0 7.1 SSW 9.9 S 0.0 232.1
06:25 22.2 72.2 1024.0 5.3 SW 7.8 SW 0.0 247.7
06:30 22.5 71.7 1024.0 3.2 SSW 5.6 SSW 0.0 263.7
06:35 22.7 71.0 1024.0 4.1 SW 6.7 SW 0.0 279.2
06:40 23.2 68.7 1025.0 6.0 SSW 9.2 SSW 0.0 296.4
06:45 23.6 66.3 1024.0 3.5 SSW 6.4 SW 0.0 312.5
06:50 23.8 68.0 1024.0 0.0 SSW 0.4 SW 0.0 326.5
06:55 24.2 66.2 1024.0 0.0 SE 0.7 S 0.0 342.1
07:00 24.4 67.2 1024.0 0.1 N 1.4 N 0.0 355.9
07:05 24.4 67.1 1024.0 0.0 NW 0.4 NNW 0.0 372.2
07:10 24.8 65.9 1025.0 0.0 NW 0.4 NW 0.0 388.3
07:15 25.0 63.7 1024.0 0.1 NNE 1.8 NNE 0.0 404.3
07:20 25.6 60.4 1024.0 1.2 NNE 5.6 NE 0.0 422.1
07:25 26.1 56.1 1024.0 1.8 NE 6.7 NE 0.0 439.1
07:30 26.3 54.3 1024.0 5.4 NE 8.8 ENE 0.0 455.8
07:35 26.5 51.2 1024.0 5.9 ENE 8.8 ENE 0.0 475.0
07:40 26.8 52.6 1025.0 4.2 NE 9.2 NE 0.0 491.4
07:45 27.1 51.4 1024.0 6.2 NE 9.9 ENE 0.0 506.3
07:50 26.9 51.1 1024.0 6.4 NE 11.6 ENE 0.0 523.1
07:55 27.0 51.5 1024.0 6.0 NE 10.6 NNE 0.0 539.2
08:00 27.5 50.3 1024.0 4.5 NE 9.5 NE 0.0 554.5
08:05 27.8 49.4 1024.0 6.1 NE 10.2 NE 0.0 568.4
08:10 27.7 49.6 1025.0 5.9 NE 11.6 NE 0.0 582.8
08:15 27.6 49.8 1024.0 5.3 NE 9.9 ENE 0.0 598.4
08:20 27.6 50.1 1024.0 2.5 NE 6.7 NE 0.0 611.0
08:25 28.0 49.2 1024.0 2.8 NE 9.2 NE 0.0 624.6
08:30 28.4 48.4 1024.0 3.5 NE 9.2 ENE 0.0 638.4
08:35 28.8 47.2 1024.0 3.2 NE 9.5 ENE 0.0 650.4
08:40 28.9 47.3 1025.0 3.1 NE 9.2 ENE 0.0 664.0
08:45 28.8 47.3 1024.0 5.8 NE 11.6 NE 0.0 678.5
08:50 28.9 48.0 1024.0 4.7 NE 8.8 ENE 0.0 690.7
08:55 29.0 47.0 1024.0 9.0 NE 14.1 ENE 0.0 706.2
09:00 29.1 47.6 1023.0 3.3 NE 9.2 NW 0.0 715.3
09:05 29.3 47.2 1024.0 6.5 NE 11.6 NE 0.0 656.3
09:10 29.3 46.4 1024.0 9.2 NE 16.2 E 0.0 742.1
09:15 29.3 46.8 1024.0 7.5 NE 14.5 NE 0.0 754.5
09:20 29.4 46.4 1024.0 8.5 ENE 15.9 ENE 0.0 766.1
09:25 29.4 46.3 1024.0 9.6 NE 19.4 ENE 0.0 778.5
09:30 29.7 45.8 1023.0 7.3 NE 14.1 NE 0.0 787.5
09:35 29.9 45.0 1023.0 9.2 NE 17.3 ENE 0.0 802.0
09:40 29.8 45.5 1024.0 7.8 NE 15.5 NNE 0.0 812.0
09:45 29.8 44.1 1023.0 6.0 ENE 14.5 NE 0.0 820.0
09:50 30.0 43.7 1023.0 8.0 NE 18.3 NE 0.0 829.0
09:55 30.5 42.0 1023.0 6.3 NE 16.2 NE 0.0 837.0
10:00 30.6 39.4 1023.0 4.8 E 15.9 NE 0.0 847.0
10:05 31.1 38.7 1023.0 5.7 NE 14.8 NNE 0.0 854.0
10:10 30.7 37.9 1024.0 3.8 NE 11.3 NNW 0.0 862.0
10:15 31.3 35.9 1023.0 5.7 NE 17.6 NE 0.0 870.0
10:20 31.4 37.4 1023.0 7.4 NE 18.0 NE 0.0 876.0
10:25 31.5 38.4 1023.0 9.6 NE 20.8 NE 0.0 887.0
10:30 31.3 39.8 1023.0 9.6 NE 19.1 NE 0.0 892.0
10:35 31.0 40.4 1023.0 6.5 NE 17.6 ENE 0.0 897.0
10:40 31.0 40.7 1023.0 9.1 NE 21.2 ENE 0.0 904.0
10:45 30.9 40.7 1023.0 7.0 NE 14.8 NE 0.0 910.0
10:50 31.5 39.7 1023.0 7.7 ENE 16.6 ENE 0.0 916.0
10:55 31.4 39.7 1023.0 11.0 NE 24.7 NE 0.0 920.0
11:00 31.4 40.0 1022.0 7.4 ENE 20.5 NE 0.0 925.0
11:05 31.1 41.6 1023.0 8.9 NE 16.9 ENE 0.0 928.0
11:10 31.2 42.1 1023.0 8.5 NE 21.9 NE 0.0 931.0
11:15 31.2 42.1 1022.0 8.8 NE 19.8 ENE 0.0 935.0
11:20 31.1 42.7 1022.0 7.6 ENE 19.1 NE 0.0 937.0
11:25 31.2 42.4 1022.0 9.2 NE 19.8 ENE 0.0 939.0
11:30 31.1 42.6 1022.0 6.5 NNE 15.2 E 0.0 941.0
11:35 31.4 42.4 1022.0 9.0 NE 18.3 ENE 0.0 945.0
11:40 31.2 43.1 1023.0 9.3 NE 18.3 NE 0.0 945.0
11:45 31.4 42.7 1022.0 8.3 NNE 18.7 NE 0.0 944.0
11:50 31.3 42.9 1022.0 13.0 NE 24.0 ENE 0.0 949.0
11:55 31.1 43.2 1022.0 11.1 NE 21.9 ENE 0.0 948.0
12:00 31.4 42.9 1022.0 8.2 NE 22.2 NE 0.0 944.0
12:05 31.4 41.0 1022.0 8.5 ENE 18.3 E 0.0 947.0
12:10 31.4 41.3 1023.0 6.0 NE 16.6 NE 0.0 944.0
12:15 31.7 41.8 1022.0 7.9 NE 16.9 NE 0.0 942.0
12:20 31.9 40.7 1022.0 11.8 ENE 24.0 ENE 0.0 946.0
12:25 31.6 40.1 1022.0 8.8 NE 17.3 E 0.0 943.0
12:30 31.3 40.1 1022.0 11.1 ENE 21.5 ENE 0.0 946.0
12:35 31.5 39.5 1022.0 10.9 NE 20.8 ENE 0.0 938.0
12:40 31.5 38.8 1022.0 9.6 ENE 19.8 ESE 0.0 932.0
12:45 31.4 38.8 1022.0 12.8 NE 21.2 NE 0.0 930.0
12:50 31.4 37.7 1022.0 12.6 ENE 24.3 ENE 0.0 927.0
12:55 31.3 37.0 1022.0 7.3 ENE 18.0 NE 0.0 921.0
13:00 31.7 37.1 1022.0 12.3 NE 21.9 ENE 0.0 916.0
13:05 31.2 36.8 1022.0 9.4 ENE 16.6 NE 0.0 910.0
13:10 31.3 36.6 1022.0 8.6 NE 22.2 ENE 0.0 840.0
13:15 31.4 36.5 1022.0 11.6 NNE 24.3 NE 0.0 818.0
13:20 31.2 36.0 1022.0 11.1 NE 24.0 NE 0.0 876.0
13:25 31.6 34.3 1022.0 10.5 NNE 18.3 NE 0.0 877.0
13:30 31.9 32.8 1022.0 10.4 NE 22.6 ENE 0.0 872.0
13:35 31.9 31.8 1022.0 11.3 NE 22.9 NE 0.0 858.0
13:40 31.7 32.0 1022.0 12.0 NE 25.4 ENE 0.0 852.0
13:45 31.7 31.8 1022.0 9.0 NE 20.8 ENE 0.0 846.0
13:50 32.0 31.8 1022.0 8.5 NE 18.3 NE 0.0 831.0
13:55 31.8 31.6 1021.0 4.9 E 12.0 ESE 0.0 820.0
14:00 31.7 32.1 1022.0 8.8 NE 21.2 NNE 0.0 794.4
14:05 31.8 33.4 1021.0 5.3 NE 14.8 E 0.0 806.0
14:10 31.6 35.2 1021.0 9.4 ENE 17.3 NE 0.0 800.0
14:15 31.2 38.1 1022.0 12.5 NE 29.3 ENE 0.0 796.8
14:20 31.2 39.7 1021.0 7.8 NE 21.9 ENE 0.0 786.0
14:25 31.0 40.0 1022.0 6.2 E 16.6 NE 0.0 775.5
14:30 31.2 39.9 1021.0 6.0 ENE 18.7 ENE 0.0 760.6
14:35 31.1 40.3 1021.0 9.2 ENE 19.4 ENE 0.0 750.4
14:40 31.2 40.8 1021.0 5.7 NE 16.6 NE 0.0 738.6
14:45 31.2 40.6 1022.0 6.5 ENE 15.5 E 0.0 722.2
14:50 30.9 41.5 1021.0 9.7 ENE 18.7 ENE 0.0 710.6
14:55 31.0 42.2 1021.0 8.7 NE 17.3 NE 0.0 698.7
15:00 31.2 41.7 1021.0 5.0 NE 16.2 E 0.0 685.6
15:05 31.1 41.9 1021.0 8.8 ENE 17.6 NE 0.0 675.0
15:10 30.7 43.5 1021.0 8.1 ENE 15.5 NE 0.0 663.4
15:15 30.9 43.1 1022.0 11.9 ENE 19.1 NE 0.0 647.3
15:20 30.5 44.1 1021.0 8.5 E 16.2 ENE 0.0 632.3
15:25 30.3 45.5 1021.0 7.8 ENE 13.4 ENE 0.0 616.7
15:30 30.6 45.3 1021.0 6.6 ENE 18.3 NE 0.0 601.8
15:35 30.5 45.2 1021.0 4.4 SE 14.5 ESE 0.0 583.3
15:40 30.6 45.2 1021.0 0.9 ENE 8.1 SE 0.0 566.1
15:45 30.4 45.3 1022.0 5.0 ENE 14.1 ENE 0.0 551.8
15:50 29.9 46.7 1021.0 6.7 ENE 15.5 ENE 0.0 539.4
15:55 30.1 46.4 1021.0 5.7 NE 13.1 NE 0.0 520.7
16:00 30.7 44.5 1021.0 3.7 ENE 12.7 NE 0.0 508.0
16:05 30.7 44.8 1021.0 6.0 NE 11.6 N 0.0 493.7
16:10 30.6 43.7 1021.0 7.7 ENE 14.8 ENE 0.0 474.5
16:15 30.4 43.9 1021.0 6.6 ENE 12.7 ENE 0.0 457.0
16:20 30.3 43.6 1021.0 6.2 ENE 17.6 NE 0.0 441.7
16:25 30.2 43.8 1021.0 4.7 ENE 11.6 ENE 0.0 428.8
16:30 30.3 43.9 1021.0 6.3 NE 12.7 ENE 0.0 413.5
16:35 30.6 43.5 1021.0 4.9 NE 9.2 N 0.0 395.5
16:40 30.6 43.1 1021.0 5.6 NE 11.6 NE 0.0 378.7
16:45 30.7 42.2 1021.0 6.2 NE 13.1 ENE 0.0 363.8
16:50 30.4 42.4 1021.0 5.1 NE 11.3 E 0.0 351.4
16:55 30.4 41.8 1021.0 6.4 NE 11.6 ENE 0.0 332.9
17:00 30.2 41.9 1021.0 4.6 NE 9.5 ENE 0.0 320.1
17:05 30.3 41.1 1020.0 7.7 NE 13.1 NE 0.0 305.6
17:10 30.2 41.4 1021.0 6.6 NE 10.2 NE 0.0 290.0
17:15 30.2 41.6 1021.0 5.1 NE 10.2 NE 0.0 272.8
17:20 30.1 41.7 1021.0 5.2 NE 10.6 ENE 0.0 257.3
17:25 29.9 42.1 1021.0 5.9 NE 9.5 ENE 0.0 241.2
17:30 29.8 42.9 1021.0 1.7 NNE 8.8 NE 0.0 225.3
17:35 29.6 42.7 1021.0 4.0 NE 9.5 ENE 0.0 210.6
17:40 29.4 43.2 1021.0 4.9 NE 9.9 ENE 0.0 195.9
17:45 29.3 44.2 1021.0 4.9 NE 10.6 ENE 0.0 181.5
17:50 29.3 44.1 1021.0 5.8 NE 10.6 ENE 0.0 166.6
17:55 29.1 45.1 1021.0 2.0 NE 6.7 NNE 0.0 143.6
18:00 28.6 46.1 1021.0 4.9 NE 9.9 ENE 0.0 61.8
18:05 28.3 47.2 1021.0 4.4 NE 8.1 ENE 0.0 54.5
18:10 28.2 48.2 1021.0 0.3 NE 3.9 ENE 0.0 49.5
18:15 27.7 50.2 1021.0 0.4 NNE 4.2 N 0.0 44.9
18:20 27.4 51.1 1021.0 1.2 NNE 6.0 NNW 0.0 41.5
18:25 27.3 51.7 1021.0 0.0 N 0.4 N 0.0 37.9
18:30 27.0 54.4 1021.0 0.0 NW 0.4 N 0.0 33.9
18:35 26.7 56.2 1021.0 0.0 NW 0.4 WNW 0.0 30.2
18:40 26.5 58.5 1021.0 0.0 WNW 0.4 NW 0.0 26.3
18:45 26.1 59.6 1022.0 0.0 SW 0.4 SW 0.0 22.8
18:50 25.7 60.6 1021.0 0.0 SW 0.4 SW 0.0 19.5
18:55 25.5 61.5 1021.0 0.9 SW 6.0 SW 0.0 16.2
19:00 25.2 62.8 1021.0 1.8 SW 5.6 SW 0.0 12.5
19:05 24.9 64.4 1021.0 3.9 SW 5.3 SW 0.0 8.4
19:10 24.8 65.1 1021.0 4.4 SW 5.6 SW 0.0 5.3
19:15 24.6 66.1 1022.0 1.5 SSW 6.0 SSW 0.0 2.9
19:20 24.5 66.6 1021.0 5.7 SW 7.8 SW 0.0 1.4
19:25 24.5 66.6 1022.0 4.9 SSW 7.4 SW 0.0 0.5
19:30 24.5 66.5 1022.0 6.0 SSW 8.5 SSW 0.0 0.0
19:35 24.5 66.3 1021.0 6.6 SSW 8.5 SSW 0.0 0.0
19:40 24.5 66.5 1021.0 6.3 SSW 8.1 SSW 0.0 0.0
19:45 24.3 66.9 1022.0 6.3 SSW 8.1 SSW 0.0 0.0
19:50 24.2 67.3 1021.0 5.8 SSW 7.4 SW 0.0 0.0
19:55 23.9 68.2 1022.0 6.6 SW 8.1 SSW 0.0 0.0
20:00 23.7 69.1 1022.0 7.0 SW 8.5 SW 0.0 0.0
20:05 23.5 69.8 1022.0 6.6 SW 7.8 SW 0.0 0.0
20:10 23.3 70.7 1022.0 6.6 SW 8.5 SSW 0.0 0.0
20:15 23.2 71.2 1022.0 5.8 SW 7.8 SW 0.0 0.0
20:20 23.0 72.0 1022.0 5.9 SW 7.4 SW 0.0 0.0
20:25 23.0 72.0 1021.0 6.5 SW 8.8 SW 0.0 0.0
20:30 23.0 71.6 1022.0 6.4 SW 8.8 SW 0.0 0.0
20:35 23.2 70.7 1021.0 6.5 SW 9.2 SW 0.0 0.0
20:40 23.2 70.0 1022.0 5.8 SW 8.1 SW 0.0 0.0
20:45 22.9 70.6 1022.0 6.0 SW 8.5 SSW 0.0 0.0
20:50 23.0 70.2 1021.0 7.2 SW 12.3 SW 0.0 0.0
20:55 23.1 69.3 1022.0 5.1 SW 8.8 SSW 0.0 0.0
21:00 23.0 69.5 1022.0 4.6 SW 7.4 W 0.0 0.0
21:05 23.0 69.6 1022.0 5.2 SW 11.3 SSW 0.0 0.0
21:10 23.1 68.8 1022.0 7.4 SSW 12.0 SW 0.0 0.0
21:15 22.9 69.2 1022.0 7.1 SSW 11.6 SSW 0.0 0.0
21:20 22.7 70.0 1022.0 8.4 SSW 12.0 SSW 0.0 0.0
21:25 22.8 69.6 1022.0 9.1 SSW 14.5 SW 0.0 0.0
21:30 23.0 68.4 1022.0 9.5 SSW 13.4 SW 0.0 0.0
21:35 22.9 68.0 1022.0 8.8 SSW 13.1 SW 0.0 0.0
21:40 22.8 68.6 1022.0 8.0 SSW 10.6 SSW 0.0 0.0
21:45 22.5 69.6 1023.0 8.4 SSW 11.3 SSW 0.0 0.0
21:50 22.3 70.4 1022.0 8.7 SSW 11.6 SSW 0.0 0.0
21:55 22.4 70.1 1022.0 8.4 SSW 12.3 SSW 0.0 0.0
22:00 22.4 70.0 1022.0 8.2 SSW 13.1 SW 0.0 0.0
22:05 22.4 70.1 1022.0 8.6 SSW 12.7 SW 0.0 0.0
Máxima 32.0 86.3 1026.0 13.0 NE 29.3 ENE 0.0 949.0
Mínima 18.1 31.6 1020.0
Total 0.0